createdAt,value
2022-08-16T00:01:40.747Z,98832.59
2022-08-16T00:04:09.590Z,98835.09
2022-08-16T00:06:39.291Z,98840.09
2022-08-16T00:09:07.257Z,98844.34
2022-08-16T00:11:34.960Z,98844.69
2022-08-16T00:14:02.380Z,98847.03
2022-08-16T00:17:06.163Z,98848.38
2022-08-16T00:19:28.342Z,98847.31
2022-08-16T00:22:00.980Z,98845.31
2022-08-16T00:24:31.355Z,98850.37
2022-08-16T00:27:01.693Z,98851.03
2022-08-16T00:29:30.062Z,98854.06
2022-08-16T00:32:01.403Z,98852.72
2022-08-16T00:34:44.193Z,98856.53
2022-08-16T00:37:24.183Z,98848.13
2022-08-16T00:39:57.581Z,98856.66
2022-08-16T00:42:31.743Z,98848.41
2022-08-16T00:45:35.545Z,98856.44
2022-08-16T00:48:31.016Z,98856.84
2022-08-16T00:50:55.438Z,98860.03
2022-08-16T00:53:23.469Z,98859.09
2022-08-16T00:55:53.388Z,98849.34
2022-08-16T00:58:34.283Z,98863.50
2022-08-16T01:01:08.616Z,98865.28
2022-08-16T01:03:41.409Z,98868.81
2022-08-16T01:06:40.267Z,98873.22
2022-08-16T01:09:00.128Z,98869.47
2022-08-16T01:11:27.893Z,98867.13
2022-08-16T01:14:02.322Z,98873.97
2022-08-16T01:16:30.141Z,98882.97
2022-08-16T01:19:07.328Z,98878.19
2022-08-16T01:21:45.227Z,98881.19
2022-08-16T01:24:53.377Z,98881.25
2022-08-16T01:27:17.525Z,98872.09
2022-08-16T01:29:58.531Z,98873.75
2022-08-16T01:32:31.783Z,98875.06
2022-08-16T01:35:04.198Z,98872.16
2022-08-16T01:37:38.878Z,98881.06
2022-08-16T01:40:10.848Z,98879.87
2022-08-16T01:42:48.008Z,98870.53
2022-08-16T01:45:19.688Z,98873.50
2022-08-16T01:47:50.978Z,98882.19
2022-08-16T01:50:42.807Z,98874.59
2022-08-16T01:53:07.868Z,98869.81
2022-08-16T01:55:40.748Z,98870.81
2022-08-16T01:58:10.880Z,98874.94
2022-08-16T02:00:40.369Z,98871.94
2022-08-16T02:03:08.039Z,98866.53
2022-08-16T02:05:42.108Z,98865.91
2022-08-16T02:08:31.874Z,98872.91
2022-08-16T02:11:04.677Z,98875.91
2022-08-16T02:13:32.648Z,98872.28
2022-08-16T02:16:00.759Z,98880.87
2022-08-16T02:18:28.879Z,98870.19
2022-08-16T02:20:59.644Z,98866.56
2022-08-16T02:23:27.302Z,98865.50
2022-08-16T02:25:57.466Z,98873.28
2022-08-16T02:28:27.334Z,98870.03
2022-08-16T02:30:55.705Z,98860.03
2022-08-16T02:33:24.492Z,98863.72
2022-08-16T02:35:53.922Z,98860.34
2022-08-16T02:38:23.492Z,98870.59
2022-08-16T02:40:51.842Z,98872.22
2022-08-16T02:43:26.878Z,98865.37
2022-08-16T02:45:56.790Z,98867.69
2022-08-16T02:48:29.992Z,98859.00
2022-08-16T02:51:06.689Z,98860.75
2022-08-16T02:53:43.203Z,98861.09
2022-08-16T02:56:15.626Z,98861.44
2022-08-16T02:58:47.875Z,98858.63
2022-08-16T03:01:25.444Z,98858.69
2022-08-16T03:04:49.503Z,98869.97
2022-08-16T03:06:50.385Z,98864.63
2022-08-16T03:09:18.652Z,98864.56
2022-08-16T03:11:47.718Z,98863.84
2022-08-16T03:14:20.870Z,98869.66
2022-08-16T03:16:59.052Z,98869.84
2022-08-16T03:19:47.037Z,98872.75
2022-08-16T03:22:19.228Z,98866.09
2022-08-16T03:24:57.626Z,98865.81
2022-08-16T03:27:30.994Z,98881.91
2022-08-16T03:30:01.960Z,98890.25
2022-08-16T03:32:29.800Z,98888.41
2022-08-16T03:34:57.220Z,98880.91
2022-08-16T03:37:25.137Z,98897.78
2022-08-16T03:39:56.701Z,98896.03
2022-08-16T03:42:30.769Z,98899.12
2022-08-16T03:45:03.331Z,98905.69
2022-08-16T03:47:34.863Z,98902.72
2022-08-16T03:50:04.341Z,98898.63
2022-08-16T03:52:53.266Z,98908.72
2022-08-16T03:55:25.831Z,98901.91
2022-08-16T03:58:07.813Z,98908.06
2022-08-16T04:00:41.235Z,98908.25
2022-08-16T04:03:10.362Z,98912.06
2022-08-16T04:05:44.079Z,98904.94
2022-08-16T04:08:23.758Z,98902.56
2022-08-16T04:10:52.864Z,98903.75
2022-08-16T04:14:01.129Z,98912.91
2022-08-16T04:16:09.294Z,98910.97
2022-08-16T04:19:02.159Z,98911.03
2022-08-16T04:21:36.229Z,98918.19
2022-08-16T04:24:15.896Z,98917.06
2022-08-16T04:26:46.084Z,98919.72
2022-08-16T04:29:23.659Z,98920.19
2022-08-16T04:31:56.219Z,98917.88
2022-08-16T04:34:29.096Z,98913.56
2022-08-16T04:36:59.045Z,98909.34
2022-08-16T04:39:46.198Z,98907.28
2022-08-16T04:42:15.988Z,98907.62
2022-08-16T04:44:53.410Z,98916.81
2022-08-16T04:47:31.509Z,98915.41
2022-08-16T04:50:22.519Z,98917.75
2022-08-16T04:52:57.886Z,98928.13
2022-08-16T04:55:31.789Z,98918.44
2022-08-16T04:58:44.009Z,98919.84
2022-08-16T05:00:54.857Z,98912.41
2022-08-16T05:03:23.092Z,98915.91
2022-08-16T05:05:59.561Z,98921.22
2022-08-16T05:08:34.269Z,98922.34
2022-08-16T05:11:05.750Z,98915.72
2022-08-16T05:13:41.198Z,98926.69
2022-08-16T05:16:20.252Z,98931.81
2022-08-16T05:18:52.065Z,98939.56
2022-08-16T05:21:20.776Z,98953.09
2022-08-16T05:23:51.689Z,98946.91
2022-08-16T05:26:27.970Z,98952.88
2022-08-16T05:28:56.836Z,98956.59
2022-08-16T05:31:29.211Z,98943.09
2022-08-16T05:34:04.222Z,98955.47
2022-08-16T05:36:33.821Z,98951.78
2022-08-16T05:39:05.391Z,98950.47
2022-08-16T05:41:33.797Z,98949.44
2022-08-16T05:44:23.457Z,98959.44
2022-08-16T05:46:54.901Z,98957.47
2022-08-16T05:49:39.653Z,98957.84
2022-08-16T05:52:11.495Z,98964.91
2022-08-16T05:54:47.563Z,98953.97
2022-08-16T05:57:26.495Z,98952.50
2022-08-16T06:00:08.847Z,98954.56
2022-08-16T06:02:40.874Z,98950.66
2022-08-16T06:05:11.962Z,98954.94
2022-08-16T06:07:42.098Z,98951.63
2022-08-16T06:10:11.528Z,98961.38
2022-08-16T06:12:39.062Z,98951.66
2022-08-16T06:15:10.250Z,98956.03
2022-08-16T06:17:43.855Z,98947.56
2022-08-16T06:20:23.167Z,98952.84
2022-08-16T06:22:59.075Z,98948.38
2022-08-16T06:25:36.108Z,98947.22
2022-08-16T06:28:09.814Z,98951.41
2022-08-16T06:30:44.082Z,98943.41
2022-08-16T06:33:19.593Z,98942.44
2022-08-16T06:35:47.714Z,98944.22
2022-08-16T06:38:32.514Z,98943.88
2022-08-16T06:41:13.531Z,98932.25
2022-08-16T06:43:42.002Z,98926.28
2022-08-16T06:46:34.112Z,98920.75
2022-08-16T06:49:02.451Z,98912.59
2022-08-16T06:51:45.928Z,98911.09
2022-08-16T06:54:16.384Z,98911.37
2022-08-16T06:56:43.784Z,98909.44
2022-08-16T06:59:11.263Z,98920.25
2022-08-16T07:01:46.341Z,98914.59
2022-08-16T07:04:32.377Z,98916.81
2022-08-16T07:07:02.982Z,98915.09
2022-08-16T07:09:30.842Z,98911.00
2022-08-16T07:12:03.928Z,98922.19
2022-08-16T07:14:33.794Z,98933.44
2022-08-16T07:17:08.024Z,98935.75
2022-08-16T07:20:29.320Z,98929.53
2022-08-16T07:22:39.139Z,98939.41
2022-08-16T07:25:10.649Z,98958.00
2022-08-16T07:27:40.029Z,98978.06
2022-08-16T07:30:38.364Z,98988.19
2022-08-16T07:32:59.788Z,98986.97
2022-08-16T07:35:28.038Z,98987.28
2022-08-16T07:37:55.712Z,98982.34
2022-08-16T07:40:56.479Z,98990.13
2022-08-16T07:43:13.577Z,98985.84
2022-08-16T07:45:42.877Z,98990.81
2022-08-16T07:48:11.619Z,98986.41
2022-08-16T07:50:57.263Z,98985.59
2022-08-16T07:53:30.654Z,98981.75
2022-08-16T07:56:00.549Z,98987.87
2022-08-16T07:58:34.431Z,98985.81
2022-08-16T08:01:10.969Z,98988.03
2022-08-16T08:03:47.687Z,98983.59
2022-08-16T08:06:18.272Z,98984.75
2022-08-16T08:08:51.448Z,98989.44
2022-08-16T08:11:21.418Z,98996.13
2022-08-16T08:13:50.893Z,98993.47
2022-08-16T08:16:19.907Z,98987.09
2022-08-16T08:18:50.581Z,98989.22
2022-08-16T08:21:27.281Z,98986.84
2022-08-16T08:23:57.717Z,98988.78
2022-08-16T08:26:25.378Z,98998.28
2022-08-16T08:28:52.821Z,98992.41
2022-08-16T08:31:22.502Z,98996.41
2022-08-16T08:33:51.580Z,98990.75
2022-08-16T08:36:33.013Z,98996.22
2022-08-16T08:39:13.307Z,98990.97
2022-08-16T08:41:42.312Z,98973.00
2022-08-16T08:44:29.087Z,98960.59
2022-08-16T08:47:05.591Z,98963.94
2022-08-16T08:49:46.688Z,98932.69
2022-08-16T08:52:35.164Z,98917.38
2022-08-16T08:55:09.541Z,98922.94
2022-08-16T08:57:40.941Z,98915.53
2022-08-16T09:00:13.453Z,98927.63
2022-08-16T09:02:43.037Z,98926.13
2022-08-16T09:05:15.267Z,98919.22
2022-08-16T09:08:00.976Z,98919.00
2022-08-16T09:10:32.513Z,98910.81
2022-08-16T09:13:01.847Z,98916.34
2022-08-16T09:15:34.023Z,98913.84
2022-08-16T09:18:26.940Z,98918.47
2022-08-16T09:20:58.566Z,98924.31
2022-08-16T09:23:36.207Z,98917.63
2022-08-16T09:26:44.066Z,98922.66
2022-08-16T09:29:15.505Z,98909.81
2022-08-16T09:31:41.957Z,98903.56
2022-08-16T09:34:09.627Z,98898.75
2022-08-16T09:36:46.277Z,98894.78
2022-08-16T09:39:15.964Z,98898.72
2022-08-16T09:41:53.406Z,98899.62
2022-08-16T09:45:09.595Z,98894.69
2022-08-16T09:47:13.410Z,98902.00
2022-08-16T09:49:41.385Z,98886.75
2022-08-16T09:52:09.968Z,98904.19
2022-08-16T09:54:38.296Z,98899.00
2022-08-16T09:57:06.070Z,98882.53
2022-08-16T09:59:42.018Z,98874.19
2022-08-16T10:02:26.212Z,98871.84
2022-08-16T10:04:56.394Z,98866.47
2022-08-16T10:07:25.486Z,98869.84
2022-08-16T10:09:56.213Z,98866.09
2022-08-16T10:12:45.857Z,98862.41
2022-08-16T10:15:21.748Z,98869.09
2022-08-16T10:18:00.071Z,98857.50
2022-08-16T10:20:31.475Z,98858.75
2022-08-16T10:23:05.819Z,98867.03
2022-08-16T10:27:20.112Z,98862.12
2022-08-16T10:28:29.273Z,98868.16
2022-08-16T10:30:59.540Z,98871.16
2022-08-16T10:33:29.664Z,98862.44
2022-08-16T10:36:03.915Z,98867.56
2022-08-16T10:38:36.724Z,98873.84
2022-08-16T10:41:06.940Z,98857.34
2022-08-16T10:43:36.083Z,98857.41
2022-08-16T10:46:39.515Z,98865.16
2022-08-16T10:48:52.610Z,98868.41
2022-08-16T10:51:20.025Z,98890.00
2022-08-16T10:54:02.384Z,98897.00
2022-08-16T10:56:51.555Z,98894.69
2022-08-16T10:59:44.049Z,98895.44
2022-08-16T11:05:10.735Z,98878.47
2022-08-16T11:07:43.640Z,98894.25
2022-08-16T11:11:04.483Z,98899.22
2022-08-16T11:15:55.705Z,98905.91
2022-08-16T11:19:03.625Z,98892.41
2022-08-16T11:21:29.045Z,98892.84
2022-08-16T11:23:58.864Z,98896.94
2022-08-16T11:26:27.446Z,98892.12
2022-08-16T11:29:13.187Z,98887.13
2022-08-16T11:31:45.697Z,98898.22
2022-08-16T11:34:21.332Z,98903.22
2022-08-16T11:36:53.824Z,98900.25
2022-08-16T11:39:31.891Z,98895.69
2022-08-16T11:42:02.527Z,98923.34
2022-08-16T11:44:51.933Z,98931.19
2022-08-16T11:47:20.791Z,98913.25
2022-08-16T11:49:48.194Z,98924.59
2022-08-16T11:52:17.746Z,98932.84
2022-08-16T11:54:53.816Z,98924.75
2022-08-16T11:57:24.629Z,98929.06
2022-08-16T11:59:54.890Z,98922.22
2022-08-16T12:02:32.441Z,98913.84
2022-08-16T12:05:01.085Z,98924.84
2022-08-16T12:07:28.565Z,98922.22
2022-08-16T12:09:55.960Z,98907.41
2022-08-16T12:12:23.991Z,98911.53
2022-08-16T12:14:59.205Z,98906.62
2022-08-16T12:17:31.966Z,98902.16
2022-08-16T12:20:05.183Z,98903.97
2022-08-16T12:22:37.029Z,98897.66
2022-08-16T12:25:14.058Z,98893.53
2022-08-16T12:27:44.457Z,98882.75
2022-08-16T12:30:21.745Z,98877.59
2022-08-16T12:32:57.865Z,98875.69
2022-08-16T12:35:26.650Z,98884.47
2022-08-16T12:37:59.713Z,98883.69
2022-08-16T12:40:30.065Z,98901.69
2022-08-16T12:42:59.617Z,98911.28
2022-08-16T12:45:30.452Z,98922.84
2022-08-16T12:48:33.829Z,98931.72
2022-08-16T12:51:10.914Z,98923.56
2022-08-16T12:53:43.471Z,98933.63
2022-08-16T12:56:11.658Z,98938.88
2022-08-16T12:58:48.504Z,98938.97
2022-08-16T13:01:19.296Z,98930.66
2022-08-16T13:03:59.129Z,98920.09
2022-08-16T13:06:33.599Z,98911.59
2022-08-16T13:09:02.465Z,98925.91
2022-08-16T13:11:36.333Z,98910.97
2022-08-16T13:14:05.373Z,98902.75
2022-08-16T13:16:33.088Z,98914.84
2022-08-16T13:19:01.585Z,98902.50
2022-08-16T13:21:28.970Z,98896.97
2022-08-16T13:23:56.645Z,98895.53
2022-08-16T13:26:26.691Z,98886.34
2022-08-16T13:28:54.487Z,98887.97
2022-08-16T13:31:23.926Z,98886.44
2022-08-16T13:33:54.481Z,98886.66
2022-08-16T13:36:48.112Z,98889.13
2022-08-16T13:39:14.097Z,98889.94
2022-08-16T13:41:41.781Z,98890.53
2022-08-16T13:44:09.660Z,98885.66
2022-08-16T13:46:37.280Z,98900.22
2022-08-16T13:49:06.987Z,98893.06
2022-08-16T13:51:34.324Z,98889.34
2022-08-16T13:54:05.888Z,98884.53
2022-08-16T13:56:37.884Z,98879.28
2022-08-16T13:59:16.522Z,98879.94
2022-08-16T14:01:55.624Z,98878.03
2022-08-16T14:04:28.425Z,98874.38
2022-08-16T14:06:57.141Z,98874.25
2022-08-16T14:09:24.858Z,98869.88
2022-08-16T14:11:55.848Z,98877.19
2022-08-16T14:14:29.303Z,98859.53
2022-08-16T14:17:01.630Z,98851.31
2022-08-16T14:19:29.898Z,98862.62
2022-08-16T14:22:14.862Z,98857.47
2022-08-16T14:24:47.333Z,98868.06
2022-08-16T14:27:19.630Z,98860.44
2022-08-16T14:29:49.829Z,98846.53
2022-08-16T14:32:32.379Z,98851.56
2022-08-16T14:35:08.903Z,98854.00
2022-08-16T14:37:38.435Z,98861.66
2022-08-16T14:40:07.306Z,98850.63
2022-08-16T14:42:36.791Z,98855.88
2022-08-16T14:45:06.325Z,98858.19
2022-08-16T14:47:37.216Z,98867.97
2022-08-16T14:50:06.675Z,98859.19
2022-08-16T14:53:04.226Z,98860.47
2022-08-16T14:55:24.662Z,98866.25
2022-08-16T14:57:54.387Z,98863.78
2022-08-16T15:00:22.356Z,98857.50
2022-08-16T15:03:02.193Z,98865.06
2022-08-16T15:08:02.274Z,98862.38
2022-08-16T15:10:31.941Z,98869.91
2022-08-16T15:13:00.931Z,98872.28
2022-08-16T15:15:29.342Z,98874.13
2022-08-16T15:17:57.747Z,98874.19
2022-08-16T15:20:26.990Z,98882.47
2022-08-16T15:22:59.028Z,98887.78
2022-08-16T15:25:33.066Z,98882.25
2022-08-16T15:28:04.546Z,98898.53
2022-08-16T15:30:57.242Z,98893.94
2022-08-16T15:33:24.605Z,98884.03
2022-08-16T15:35:57.777Z,98886.84
2022-08-16T15:38:56.943Z,98892.34
2022-08-16T15:41:29.205Z,98890.16
2022-08-16T15:44:05.112Z,98893.88
2022-08-16T15:46:54.700Z,98889.53
2022-08-16T15:49:23.670Z,98901.06
2022-08-16T15:51:54.146Z,98892.59
2022-08-16T15:54:30.658Z,98904.31
2022-08-16T15:57:09.656Z,98915.97
2022-08-16T15:59:48.619Z,98905.72
2022-08-16T16:02:29.513Z,98890.34
2022-08-16T16:05:04.387Z,98895.91
2022-08-16T16:07:33.415Z,98903.69
2022-08-16T16:10:02.516Z,98918.19
2022-08-16T16:12:51.329Z,98923.75
2022-08-16T16:15:18.451Z,98927.44
2022-08-16T16:17:50.881Z,98928.66
2022-08-16T16:20:21.259Z,98945.31
2022-08-16T16:22:49.895Z,98932.19
2022-08-16T16:25:17.786Z,98941.19
2022-08-16T16:27:45.610Z,98938.38
2022-08-16T16:30:33.437Z,98943.59
2022-08-16T16:33:01.259Z,98950.41
2022-08-16T16:35:30.717Z,98927.03
2022-08-16T16:38:01.024Z,98934.81
2022-08-16T16:40:32.755Z,98930.84
2022-08-16T16:43:01.797Z,98926.34
2022-08-16T16:45:33.515Z,98929.72
2022-08-16T16:48:11.901Z,98926.41
2022-08-16T16:50:45.411Z,98930.72
2022-08-16T16:53:17.159Z,98942.16
2022-08-16T16:55:47.460Z,98928.47
2022-08-16T16:58:38.807Z,98927.84
2022-08-16T17:01:08.172Z,98928.31
2022-08-16T17:03:35.890Z,98921.84
2022-08-16T17:06:09.295Z,98933.22
2022-08-16T17:08:41.335Z,98932.03
2022-08-16T17:11:09.910Z,98935.41
2022-08-16T17:13:38.572Z,98943.13
2022-08-16T17:16:06.170Z,98938.09
2022-08-16T17:19:15.592Z,98941.78
2022-08-16T17:21:24.779Z,98939.88
2022-08-16T17:23:58.112Z,98934.59
2022-08-16T17:26:29.715Z,98939.81
2022-08-16T17:29:10.798Z,98948.59
2022-08-16T17:31:40.865Z,98943.28
2022-08-16T17:34:30.270Z,98952.13
2022-08-16T17:37:00.673Z,98960.16
2022-08-16T17:39:58.195Z,98973.09
2022-08-16T17:42:25.385Z,98983.16
2022-08-16T17:44:54.387Z,98987.13
2022-08-16T17:47:22.502Z,98986.75
2022-08-16T17:49:50.186Z,98998.62
2022-08-16T17:52:17.797Z,98998.44
2022-08-16T17:54:45.217Z,99003.19
2022-08-16T17:57:13.527Z,99008.34
2022-08-16T17:59:44.369Z,99012.66
2022-08-16T18:02:42.024Z,99009.28
2022-08-16T18:05:00.053Z,99018.78
2022-08-16T18:07:27.494Z,99021.44
2022-08-16T18:09:54.878Z,99032.31
2022-08-16T18:12:45.035Z,99023.31
2022-08-16T18:15:11.984Z,99033.78
2022-08-16T18:17:41.944Z,99038.63
2022-08-16T18:20:28.522Z,99043.47
2022-08-16T18:23:07.060Z,99040.91
2022-08-16T18:25:35.075Z,99045.28
2022-08-16T18:28:02.836Z,99045.66
2022-08-16T18:30:30.245Z,99046.28
2022-08-16T18:32:57.666Z,99044.06
2022-08-16T18:35:25.587Z,99041.91
2022-08-16T18:37:53.087Z,99043.09
2022-08-16T18:40:20.438Z,99051.38
2022-08-16T18:43:08.558Z,99049.03
2022-08-16T18:45:37.083Z,99044.34
2022-08-16T18:48:05.430Z,99044.28
2022-08-16T18:51:03.383Z,99043.34
2022-08-16T18:53:21.127Z,99046.31
2022-08-16T18:55:48.642Z,99047.44
2022-08-16T18:58:17.181Z,99046.28
2022-08-16T19:00:56.423Z,99058.97
2022-08-16T19:03:30.896Z,99057.25
2022-08-16T19:06:02.374Z,99052.69
2022-08-16T19:08:30.269Z,99053.81
2022-08-16T19:10:58.354Z,99048.25
2022-08-16T19:13:26.776Z,99049.06
2022-08-16T19:15:56.186Z,99056.72
2022-08-16T19:18:24.295Z,99045.50
2022-08-16T19:20:52.066Z,99049.22
2022-08-16T19:23:21.382Z,99060.81
2022-08-16T19:25:53.179Z,99056.03
2022-08-16T19:28:49.226Z,99063.03
2022-08-16T19:31:18.439Z,99066.59
2022-08-16T19:33:54.393Z,99059.19
2022-08-16T19:36:30.955Z,99062.66
2022-08-16T19:39:05.114Z,99070.06
2022-08-16T19:41:35.741Z,99073.88
2022-08-16T19:44:04.155Z,99077.50
2022-08-16T19:46:32.578Z,99074.69
2022-08-16T19:49:00.602Z,99076.81
2022-08-16T19:51:28.361Z,99079.94
2022-08-16T19:53:56.122Z,99084.72
2022-08-16T19:56:25.822Z,99087.13
2022-08-16T20:01:43.689Z,99075.16
2022-08-16T20:04:14.558Z,99081.25
2022-08-16T20:06:42.061Z,99083.09
2022-08-16T20:09:12.731Z,99081.34
2022-08-16T20:11:46.655Z,99083.09
2022-08-16T20:14:24.148Z,99085.72
2022-08-16T20:16:56.706Z,99081.44
2022-08-16T20:19:25.220Z,99093.22
2022-08-16T20:21:53.307Z,99096.25
2022-08-16T20:24:34.057Z,99096.47
2022-08-16T20:27:04.169Z,99098.38
2022-08-16T20:29:31.566Z,99101.28
2022-08-16T20:31:59.009Z,99090.06
2022-08-16T20:34:26.667Z,99088.66
2022-08-16T20:36:54.038Z,99097.94
2022-08-16T20:39:23.415Z,99098.56
2022-08-16T20:41:51.294Z,99096.06
2022-08-16T20:44:22.998Z,99097.84
2022-08-16T20:46:52.816Z,99097.34
2022-08-16T20:49:20.232Z,99101.37
2022-08-16T20:51:50.744Z,99103.22
2022-08-16T20:54:21.268Z,99106.56
2022-08-16T20:56:48.782Z,99107.06
2022-08-16T20:59:16.210Z,99107.88
2022-08-16T21:01:45.844Z,99105.41
2022-08-16T21:04:15.026Z,99111.41
2022-08-16T21:06:42.372Z,99115.75
2022-08-16T21:09:23.733Z,99110.38
2022-08-16T21:11:52.865Z,99112.13
2022-08-16T21:14:20.311Z,99110.63
2022-08-16T21:16:48.082Z,99116.69
2022-08-16T21:19:15.507Z,99115.75
2022-08-16T21:21:42.859Z,99121.75
2022-08-16T21:24:10.507Z,99113.31
2022-08-16T21:26:38.907Z,99110.31
2022-08-16T21:29:07.635Z,99114.69
2022-08-16T21:31:35.498Z,99109.28
2022-08-16T21:34:02.888Z,99114.84
2022-08-16T21:36:34.809Z,99112.28
2022-08-16T21:39:05.652Z,99116.87
2022-08-16T21:41:34.259Z,99126.66
2022-08-16T21:44:01.658Z,99122.84
2022-08-16T21:46:29.371Z,99121.91
2022-08-16T21:48:56.739Z,99120.69
2022-08-16T21:51:24.127Z,99123.41
2022-08-16T21:53:51.794Z,99124.75
2022-08-16T21:56:19.161Z,99127.25
2022-08-16T21:58:46.569Z,99126.13
2022-08-16T22:01:23.994Z,99129.78
2022-08-16T22:04:03.542Z,99122.66
2022-08-16T22:06:39.403Z,99120.84
2022-08-16T22:09:07.161Z,99124.47
2022-08-16T22:11:34.529Z,99130.78
2022-08-16T22:14:01.919Z,99120.19
2022-08-16T22:16:31.401Z,99128.44
2022-08-16T22:18:59.453Z,99126.94
2022-08-16T22:21:26.840Z,99129.78
2022-08-16T22:23:57.870Z,99120.62
2022-08-16T22:26:31.250Z,99123.78
2022-08-16T22:29:07.575Z,99132.84
2022-08-16T22:31:35.567Z,99130.72
2022-08-16T22:34:03.449Z,99128.25
2022-08-16T22:36:31.555Z,99134.41
2022-08-16T22:39:00.354Z,99134.59
2022-08-16T22:41:28.248Z,99135.22
2022-08-16T22:43:55.799Z,99130.84
2022-08-16T22:46:23.384Z,99129.75
2022-08-16T22:48:51.284Z,99134.50
2022-08-16T22:51:19.361Z,99133.31
2022-08-16T22:53:46.739Z,99134.78
2022-08-16T22:56:15.719Z,99131.03
2022-08-16T22:58:43.762Z,99126.88
2022-08-16T23:01:12.152Z,99133.31
2022-08-16T23:03:39.948Z,99127.41
2022-08-16T23:06:07.559Z,99133.59
2022-08-16T23:08:40.518Z,99139.75
2022-08-16T23:11:10.387Z,99140.53
2022-08-16T23:13:37.845Z,99142.44
2022-08-16T23:16:21.503Z,99141.63
2022-08-16T23:18:49.594Z,99141.00
2022-08-16T23:21:18.072Z,99137.81
2022-08-16T23:23:49.013Z,99135.22
2022-08-16T23:26:47.105Z,99133.50
2022-08-16T23:29:05.128Z,99134.56
2022-08-16T23:31:32.764Z,99133.59
2022-08-16T23:34:00.347Z,99135.84
2022-08-16T23:36:28.037Z,99128.62
2022-08-16T23:38:55.381Z,99138.88
2022-08-16T23:41:23.759Z,99130.59
2022-08-16T23:43:51.411Z,99137.75
2022-08-16T23:46:19.463Z,99140.19
2022-08-16T23:49:57.317Z,99136.34
2022-08-16T23:51:35.165Z,99142.38
2022-08-16T23:54:02.529Z,99131.91
2022-08-16T23:56:32.139Z,99137.63
2022-08-16T23:59:08.417Z,99130.94
